createdAt,value
2018-08-23T00:01:31.502Z,8.20
2018-08-23T00:04:10.187Z,8.13
2018-08-23T00:06:46.647Z,7.33
2018-08-23T00:09:15.746Z,7.60
2018-08-23T00:11:46.193Z,7.67
2018-08-23T00:14:16.078Z,7.10
2018-08-23T00:16:46.351Z,7.80
2018-08-23T00:19:16.341Z,7.50
2018-08-23T00:21:48.836Z,7.40
2018-08-23T00:24:24.542Z,7.63
2018-08-23T00:26:58.104Z,7.40
2018-08-23T00:29:31.539Z,7.77
2018-08-23T00:32:04.743Z,7.70
2018-08-23T00:34:35.653Z,8.10
2018-08-23T00:37:05.405Z,8.17
2018-08-23T00:39:34.511Z,7.93
2018-08-23T00:42:05.742Z,8.43
2018-08-23T00:44:51.735Z,8.40
2018-08-23T00:47:23.082Z,8.47
2018-08-23T00:49:52.117Z,8.27
2018-08-23T00:52:30.842Z,8.70
2018-08-23T00:55:10.756Z,7.97
2018-08-23T00:57:39.786Z,8.93
2018-08-23T01:00:08.862Z,7.80
2018-08-23T01:02:37.958Z,9.50
2018-08-23T01:05:07.046Z,8.90
2018-08-23T01:07:36.145Z,8.90
2018-08-23T01:10:05.238Z,10.10
2018-08-23T01:12:44.530Z,10.20
2018-08-23T01:15:13.597Z,9.17
2018-08-23T01:17:42.680Z,9.23
2018-08-23T01:20:11.754Z,11.07
2018-08-23T01:22:51.028Z,8.33
2018-08-23T01:25:20.094Z,8.63
2018-08-23T01:27:49.193Z,8.40
2018-08-23T01:30:18.201Z,9.80
2018-08-23T01:32:47.278Z,9.37
2018-08-23T01:35:16.372Z,9.77
2018-08-23T01:37:45.469Z,9.30
2018-08-23T01:40:14.535Z,9.40
2018-08-23T01:42:43.605Z,8.67
2018-08-23T01:45:12.669Z,8.70
2018-08-23T01:47:47.084Z,8.73
2018-08-23T01:50:16.115Z,8.13
2018-08-23T01:52:50.505Z,8.17
2018-08-23T01:55:20.369Z,8.37
2018-08-23T01:57:49.881Z,7.97
2018-08-23T02:00:22.225Z,8.97
2018-08-23T02:02:51.269Z,8.30
2018-08-23T02:05:20.327Z,8.37
2018-08-23T02:07:49.457Z,8.30
2018-08-23T02:10:18.600Z,8.47
2018-08-23T02:12:52.509Z,8.63
2018-08-23T02:15:22.357Z,8.10
2018-08-23T02:17:56.363Z,8.60
2018-08-23T02:20:26.477Z,8.73
2018-08-23T02:22:56.209Z,8.47
2018-08-23T02:25:25.481Z,8.73
2018-08-23T02:28:00.625Z,8.70
2018-08-23T02:30:42.476Z,9.37
2018-08-23T02:33:12.438Z,9.17
2018-08-23T02:35:51.567Z,8.27
2018-08-23T02:38:20.610Z,8.07
2018-08-23T02:40:49.644Z,9.10
2018-08-23T02:43:18.657Z,9.50
2018-08-23T02:45:52.788Z,8.97
2018-08-23T02:48:22.723Z,8.80
2018-08-23T02:50:52.402Z,9.40
2018-08-23T02:53:37.056Z,8.93
2018-08-23T02:56:13.217Z,8.47
2018-08-23T02:58:56.999Z,10.03
2018-08-23T03:01:27.245Z,9.10
2018-08-23T03:04:06.905Z,9.33
2018-08-23T03:07:12.685Z,9.80
2018-08-23T03:09:43.363Z,9.30
2018-08-23T03:12:13.999Z,9.30
2018-08-23T03:14:43.037Z,9.07
2018-08-23T03:17:15.589Z,9.40
2018-08-23T03:20:14.497Z,9.03
2018-08-23T03:22:44.746Z,8.43
2018-08-23T03:25:16.981Z,9.27
2018-08-23T03:27:46.017Z,9.23
2018-08-23T03:30:16.287Z,8.50
2018-08-23T03:32:45.505Z,8.67
2018-08-23T03:35:14.610Z,7.57
2018-08-23T03:37:43.738Z,7.73
2018-08-23T03:40:13.942Z,8.60
2018-08-23T03:42:42.917Z,8.57
2018-08-23T03:45:17.485Z,8.57
2018-08-23T03:47:50.522Z,8.50
2018-08-23T03:50:19.801Z,9.03
2018-08-23T03:52:50.041Z,7.60
2018-08-23T03:55:21.371Z,9.00
2018-08-23T03:57:52.329Z,9.60
2018-08-23T04:00:26.911Z,9.37
2018-08-23T04:02:56.387Z,12.00
2018-08-23T04:05:25.452Z,8.50
2018-08-23T04:07:54.574Z,8.50
2018-08-23T04:10:23.904Z,8.80
2018-08-23T04:12:52.908Z,8.30
2018-08-23T04:15:23.871Z,9.23
2018-08-23T04:17:53.055Z,9.23
2018-08-23T04:20:22.089Z,9.13
2018-08-23T04:22:51.235Z,8.07
2018-08-23T04:25:20.159Z,9.20
2018-08-23T04:27:49.294Z,8.87
2018-08-23T04:30:18.347Z,8.80
2018-08-23T04:32:48.691Z,9.30
2018-08-23T04:35:34.354Z,9.60
2018-08-23T04:38:03.660Z,9.33
2018-08-23T04:40:32.706Z,11.73
2018-08-23T04:43:01.766Z,11.03
2018-08-23T04:45:33.322Z,12.30
2018-08-23T04:48:09.534Z,11.97
2018-08-23T04:50:39.702Z,13.57
2018-08-23T04:53:08.898Z,12.23
2018-08-23T04:55:37.978Z,14.07
2018-08-23T04:58:07.192Z,12.53
2018-08-23T05:00:36.216Z,15.03
2018-08-23T05:03:05.638Z,13.43
2018-08-23T05:05:34.758Z,13.03
2018-08-23T05:08:04.189Z,13.83
2018-08-23T05:10:33.465Z,13.97
2018-08-23T05:13:02.977Z,14.23
2018-08-23T05:15:32.106Z,14.70
2018-08-23T05:18:01.232Z,15.30
2018-08-23T05:20:30.280Z,15.97
2018-08-23T05:23:03.676Z,17.43
2018-08-23T05:25:32.685Z,18.83
2018-08-23T05:28:15.092Z,17.33
2018-08-23T05:30:45.577Z,19.43
2018-08-23T05:33:17.721Z,19.87
2018-08-23T05:35:46.937Z,18.63
2018-08-23T05:38:16.697Z,17.90
2018-08-23T05:40:51.691Z,18.23
2018-08-23T05:43:21.433Z,19.57
2018-08-23T05:45:51.935Z,21.13
2018-08-23T05:48:32.389Z,19.07
2018-08-23T05:51:14.485Z,20.93
2018-08-23T05:53:48.783Z,19.33
2018-08-23T05:56:18.966Z,20.07
2018-08-23T05:58:48.237Z,23.30
2018-08-23T06:01:17.417Z,24.20
2018-08-23T06:03:46.545Z,23.70
2018-08-23T06:06:15.673Z,25.70
2018-08-23T06:08:49.461Z,26.17
2018-08-23T06:11:18.561Z,27.13
2018-08-23T06:13:47.575Z,27.23
2018-08-23T06:16:17.150Z,29.27
2018-08-23T06:18:47.565Z,28.70
2018-08-23T06:21:17.001Z,29.73
2018-08-23T06:23:53.872Z,30.07
2018-08-23T06:26:38.419Z,29.17
2018-08-23T06:29:07.984Z,27.67
2018-08-23T06:31:45.581Z,27.20
2018-08-23T06:34:14.654Z,27.23
2018-08-23T06:36:45.506Z,24.87
2018-08-23T06:39:14.653Z,26.23
2018-08-23T06:41:43.845Z,25.57
2018-08-23T06:44:12.871Z,24.97
2018-08-23T06:46:42.026Z,24.13
2018-08-23T06:49:11.027Z,25.00
2018-08-23T06:51:40.246Z,23.13
2018-08-23T06:54:09.335Z,22.67
2018-08-23T06:56:38.813Z,22.90
2018-08-23T06:59:08.850Z,22.37
2018-08-23T07:01:43.225Z,22.97
2018-08-23T07:04:13.698Z,22.27
2018-08-23T07:06:43.912Z,22.97
2018-08-23T07:09:14.622Z,23.43
2018-08-23T07:14:10.488Z,22.70
2018-08-23T07:16:40.534Z,23.60
2018-08-23T07:19:24.440Z,23.70
2018-08-23T07:21:54.472Z,22.10
2018-08-23T07:24:41.202Z,24.73
2018-08-23T07:27:11.366Z,24.77
2018-08-23T07:29:41.572Z,23.83
2018-08-23T07:32:18.706Z,23.13
2018-08-23T07:34:59.804Z,22.27
2018-08-23T07:37:29.277Z,22.97
2018-08-23T07:40:03.804Z,22.93
2018-08-23T07:42:33.748Z,23.13
2018-08-23T07:45:03.393Z,22.37
2018-08-23T07:47:33.264Z,22.63
2018-08-23T07:50:03.035Z,22.73
2018-08-23T07:52:33.122Z,21.27
2018-08-23T07:55:06.182Z,22.60
2018-08-23T07:57:36.366Z,21.97
2018-08-23T08:00:23.726Z,20.53
2018-08-23T08:02:52.906Z,21.13
2018-08-23T08:05:22.504Z,19.30
2018-08-23T08:07:51.598Z,18.97
2018-08-23T08:10:20.898Z,18.00
2018-08-23T08:12:50.937Z,18.50
2018-08-23T08:15:20.235Z,18.53
2018-08-23T08:17:49.156Z,18.10
2018-08-23T08:20:18.230Z,17.77
2018-08-23T08:22:47.292Z,17.97
2018-08-23T08:25:17.618Z,16.63
2018-08-23T08:27:47.156Z,18.13
2018-08-23T08:30:19.378Z,17.13
2018-08-23T08:32:48.530Z,16.90
2018-08-23T08:35:19.828Z,18.30
2018-08-23T08:37:49.965Z,17.87
2018-08-23T08:40:23.568Z,18.47
2018-08-23T08:42:52.620Z,17.90
2018-08-23T08:45:22.292Z,19.37
2018-08-23T08:47:51.371Z,19.17
2018-08-23T08:50:20.543Z,18.47
2018-08-23T08:52:49.522Z,19.30
2018-08-23T08:55:18.551Z,19.70
2018-08-23T08:57:47.922Z,20.00
2018-08-23T09:00:17.049Z,19.90
2018-08-23T09:02:46.209Z,19.47
2018-08-23T09:05:15.234Z,18.40
2018-08-23T09:07:44.866Z,18.43
2018-08-23T09:10:13.964Z,19.60
2018-08-23T09:12:47.854Z,18.70
2018-08-23T09:15:16.846Z,18.70
2018-08-23T09:17:46.742Z,17.90
2018-08-23T09:20:17.089Z,16.93
2018-08-23T09:22:49.890Z,17.27
2018-08-23T09:25:31.982Z,17.73
2018-08-23T09:28:01.080Z,17.97
2018-08-23T09:30:31.475Z,18.03
2018-08-23T09:33:06.014Z,17.97
2018-08-23T09:35:35.524Z,16.73
2018-08-23T09:38:10.471Z,15.60
2018-08-23T09:40:39.686Z,14.07
2018-08-23T09:43:08.758Z,14.07
2018-08-23T09:45:38.626Z,13.27
2018-08-23T09:48:07.900Z,12.47
2018-08-23T09:50:36.981Z,11.40
2018-08-23T09:53:21.957Z,11.47
2018-08-23T09:55:52.020Z,11.67
2018-08-23T09:58:26.625Z,12.90
2018-08-23T10:01:01.093Z,12.73
2018-08-23T10:03:35.853Z,12.60
2018-08-23T10:06:10.213Z,12.87
2018-08-23T10:08:44.626Z,13.00
2018-08-23T10:11:19.684Z,12.73
2018-08-23T10:13:54.191Z,14.07
2018-08-23T10:16:28.661Z,13.73
2018-08-23T10:18:59.629Z,13.17
2018-08-23T10:21:33.933Z,12.93
2018-08-23T10:24:15.796Z,13.00
2018-08-23T10:26:45.401Z,13.50
2018-08-23T10:29:14.445Z,13.27
2018-08-23T10:31:43.516Z,12.50
2018-08-23T10:34:12.967Z,12.00
2018-08-23T10:36:42.120Z,13.00
2018-08-23T10:39:12.936Z,12.40
2018-08-23T10:41:42.045Z,12.27
2018-08-23T10:44:11.068Z,12.27
2018-08-23T10:46:45.550Z,11.30
2018-08-23T10:49:14.610Z,10.77
2018-08-23T10:51:43.780Z,10.07
2018-08-23T10:54:13.263Z,9.13
2018-08-23T10:56:42.304Z,9.40
2018-08-23T10:59:11.481Z,9.57
2018-08-23T11:01:40.550Z,10.73
2018-08-23T11:04:10.399Z,9.67
2018-08-23T11:06:44.770Z,9.73
2018-08-23T11:09:19.160Z,9.37
2018-08-23T11:11:48.330Z,7.73
2018-08-23T11:14:22.715Z,7.97
2018-08-23T11:16:57.190Z,8.17
2018-08-23T11:19:31.615Z,7.60
2018-08-23T11:22:00.744Z,7.60
2018-08-23T11:24:29.794Z,7.90
2018-08-23T11:26:58.838Z,7.10
2018-08-23T11:29:27.880Z,7.33
2018-08-23T11:31:56.996Z,7.80
2018-08-23T11:34:26.077Z,7.13
2018-08-23T11:36:55.175Z,6.63
2018-08-23T11:39:24.412Z,7.20
2018-08-23T11:41:53.501Z,6.60
2018-08-23T11:44:22.577Z,6.00
2018-08-23T11:46:51.813Z,6.07
2018-08-23T11:49:20.824Z,6.30
2018-08-23T11:51:49.850Z,5.73
2018-08-23T11:54:19.079Z,6.13
2018-08-23T11:56:48.082Z,5.47
2018-08-23T11:59:17.127Z,5.00
2018-08-23T12:01:46.170Z,5.00
2018-08-23T12:04:15.199Z,4.80
2018-08-23T12:06:44.192Z,4.00
2018-08-23T12:09:13.420Z,3.90
2018-08-23T12:11:42.524Z,3.97
2018-08-23T12:14:11.623Z,4.03
2018-08-23T12:16:40.756Z,4.23
2018-08-23T12:19:09.840Z,3.90
2018-08-23T12:21:40.017Z,3.93
2018-08-23T12:24:09.157Z,3.27
2018-08-23T12:26:38.261Z,3.60
2018-08-23T12:29:08.248Z,3.23
2018-08-23T12:31:37.758Z,3.30
2018-08-23T12:34:08.394Z,3.40
2018-08-23T12:36:42.861Z,3.23
2018-08-23T12:39:17.325Z,3.10
2018-08-23T12:42:50.785Z,3.43
2018-08-23T12:45:20.061Z,3.20
2018-08-23T12:47:49.696Z,2.83
2018-08-23T12:50:18.715Z,3.43
2018-08-23T12:52:47.884Z,3.23
2018-08-23T12:55:16.911Z,3.43
2018-08-23T12:57:46.007Z,3.30
2018-08-23T13:00:15.245Z,3.13
2018-08-23T13:02:44.589Z,3.57
2018-08-23T13:05:13.538Z,3.50
2018-08-23T13:07:42.625Z,3.30
2018-08-23T13:10:11.688Z,2.93
2018-08-23T13:12:40.805Z,3.23
2018-08-23T13:15:09.892Z,3.43
2018-08-23T13:17:39.065Z,3.17
2018-08-23T13:20:08.103Z,3.40
2018-08-23T13:22:39.316Z,3.80
2018-08-23T13:25:10.457Z,3.43
2018-08-23T13:27:39.788Z,4.87
2018-08-23T13:30:08.868Z,3.23
2018-08-23T13:32:37.952Z,3.50
2018-08-23T13:35:07.318Z,3.33
2018-08-23T13:37:36.345Z,3.07
2018-08-23T13:40:05.597Z,2.90
2018-08-23T13:42:34.684Z,3.00
2018-08-23T13:45:03.722Z,2.73
2018-08-23T13:47:32.754Z,3.77
2018-08-23T13:50:01.811Z,2.77
2018-08-23T13:52:30.885Z,3.23
2018-08-23T13:54:59.960Z,3.17
2018-08-23T13:57:29.033Z,3.13
2018-08-23T13:59:58.585Z,2.90
2018-08-23T14:02:27.731Z,2.67
2018-08-23T14:04:57.061Z,3.33
2018-08-23T14:07:26.223Z,3.23
2018-08-23T14:09:55.307Z,3.20
2018-08-23T14:12:24.505Z,3.03
2018-08-23T14:14:55.653Z,2.90
2018-08-23T14:17:24.965Z,2.87
2018-08-23T14:19:54.577Z,2.80
2018-08-23T14:22:23.719Z,2.93
2018-08-23T14:24:52.792Z,2.80
2018-08-23T14:27:21.829Z,2.80
2018-08-23T14:29:50.975Z,2.47
2018-08-23T14:32:20.050Z,2.73
2018-08-23T14:34:49.155Z,2.43
2018-08-23T14:38:47.551Z,2.50
2018-08-23T14:41:16.979Z,3.00
2018-08-23T14:43:46.096Z,2.50
2018-08-23T14:46:20.532Z,2.50
2018-08-23T14:48:49.550Z,2.60
2018-08-23T14:51:19.442Z,2.73
2018-08-23T14:53:48.872Z,2.50
2018-08-23T14:56:23.396Z,2.40
2018-08-23T14:58:52.586Z,2.07
2018-08-23T15:01:21.714Z,2.50
2018-08-23T15:03:50.788Z,2.40
2018-08-23T15:06:19.964Z,2.50
2018-08-23T15:08:48.958Z,2.20
2018-08-23T15:11:18.053Z,2.03
2018-08-23T15:13:47.178Z,2.03
2018-08-23T15:16:16.361Z,1.80
2018-08-23T15:18:45.473Z,2.10
2018-08-23T15:21:14.555Z,2.13
2018-08-23T15:23:43.678Z,2.17
2018-08-23T15:26:12.846Z,1.80
2018-08-23T15:28:41.874Z,1.90
2018-08-23T15:31:10.969Z,1.60
2018-08-23T15:33:40.057Z,1.93
2018-08-23T15:36:09.161Z,1.70
2018-08-23T15:38:38.226Z,1.80
2018-08-23T15:41:07.548Z,1.90
2018-08-23T15:43:36.662Z,1.87
2018-08-23T15:46:05.749Z,2.07
2018-08-23T15:48:34.912Z,1.80
2018-08-23T15:51:04.058Z,1.80
2018-08-23T15:53:33.090Z,1.63
2018-08-23T15:56:02.397Z,1.80
2018-08-23T15:58:31.585Z,1.60
2018-08-23T16:01:00.682Z,1.70
2018-08-23T16:03:29.805Z,1.53
2018-08-23T16:05:58.915Z,1.50
2018-08-23T16:08:28.028Z,1.60
2018-08-23T16:10:57.137Z,1.60
2018-08-23T16:13:26.199Z,1.70
2018-08-23T16:17:01.714Z,1.70
2018-08-23T16:19:36.061Z,1.60
2018-08-23T16:22:05.246Z,1.63
2018-08-23T16:24:34.322Z,1.70
2018-08-23T16:27:04.645Z,1.30
2018-08-23T16:29:33.678Z,1.47
2018-08-23T16:32:03.013Z,1.57
2018-08-23T16:34:32.073Z,1.50
2018-08-23T16:37:01.254Z,1.37
2018-08-23T16:39:30.350Z,1.33
2018-08-23T16:41:59.446Z,1.30
2018-08-23T16:44:28.644Z,1.60
2018-08-23T16:46:58.122Z,1.40
2018-08-23T16:49:27.112Z,1.43
2018-08-23T16:51:56.245Z,1.50
2018-08-23T16:54:25.352Z,1.40
2018-08-23T16:56:54.533Z,1.30
2018-08-23T16:59:23.603Z,1.00
2018-08-23T17:01:52.725Z,1.40
2018-08-23T17:04:26.083Z,1.37
2018-08-23T17:06:55.574Z,1.20
2018-08-23T17:09:24.653Z,1.20
2018-08-23T17:11:53.724Z,1.13
2018-08-23T17:14:22.808Z,1.20
2018-08-23T17:16:57.245Z,0.97
2018-08-23T17:19:26.310Z,1.00
2018-08-23T17:21:55.413Z,1.10
2018-08-23T17:24:24.761Z,1.30
2018-08-23T17:26:53.945Z,1.10
2018-08-23T17:29:23.229Z,1.03
2018-08-23T17:31:52.463Z,1.00
2018-08-23T17:34:21.559Z,1.30
2018-08-23T17:36:50.720Z,1.30
2018-08-23T17:39:19.796Z,1.10
2018-08-23T17:41:48.917Z,1.27
2018-08-23T17:44:17.970Z,1.10
2018-08-23T17:46:47.094Z,1.07
2018-08-23T17:49:16.168Z,1.20
2018-08-23T17:51:45.288Z,1.20
2018-08-23T17:54:14.432Z,1.33
2018-08-23T17:56:44.505Z,1.20
2018-08-23T17:59:13.600Z,1.40
2018-08-23T18:01:42.667Z,1.20
2018-08-23T18:04:11.794Z,1.30
2018-08-23T18:06:41.008Z,1.37
2018-08-23T18:09:11.742Z,1.40
2018-08-23T18:11:41.028Z,1.13
2018-08-23T18:14:10.156Z,1.20
2018-08-23T18:16:44.545Z,1.40
2018-08-23T18:19:13.695Z,1.40
2018-08-23T18:21:43.018Z,1.40
2018-08-23T18:24:12.132Z,1.43
2018-08-23T18:26:41.264Z,1.20
2018-08-23T18:29:10.298Z,1.50
2018-08-23T18:31:39.269Z,1.50
2018-08-23T18:34:08.336Z,1.40
2018-08-23T18:36:37.612Z,1.67
2018-08-23T18:39:08.633Z,1.80
2018-08-23T18:41:37.697Z,1.50
2018-08-23T18:44:07.258Z,1.30
2018-08-23T18:46:36.454Z,1.57
2018-08-23T18:49:05.548Z,1.40
2018-08-23T18:51:34.610Z,1.60
2018-08-23T18:54:03.769Z,1.40
2018-08-23T18:56:32.756Z,1.63
2018-08-23T18:59:01.932Z,1.30
2018-08-23T19:01:31.011Z,1.30
2018-08-23T19:04:00.012Z,1.30
2018-08-23T19:06:37.327Z,1.30
2018-08-23T19:09:11.697Z,1.50
2018-08-23T19:11:40.751Z,1.27
2018-08-23T19:14:09.807Z,1.10
2018-08-23T19:16:44.273Z,1.23
2018-08-23T19:19:13.334Z,1.20
2018-08-23T19:21:42.457Z,1.30
2018-08-23T19:24:11.546Z,1.60
2018-08-23T19:26:40.543Z,1.40
2018-08-23T19:29:10.676Z,1.20
2018-08-23T19:31:39.767Z,1.47
2018-08-23T19:34:08.825Z,1.33
2018-08-23T19:36:37.909Z,1.43
2018-08-23T19:39:09.889Z,1.50
2018-08-23T19:41:38.969Z,1.60
2018-08-23T19:44:08.144Z,1.67
2018-08-23T19:46:42.602Z,1.37
2018-08-23T19:49:17.256Z,1.50
2018-08-23T19:51:46.304Z,1.30
2018-08-23T19:54:15.299Z,1.50
2018-08-23T19:56:44.449Z,1.40
2018-08-23T19:59:13.563Z,1.47
2018-08-23T20:01:42.593Z,1.47
2018-08-23T20:05:14.901Z,1.20
2018-08-23T20:07:43.906Z,1.40
2018-08-23T20:10:13.000Z,1.37
2018-08-23T20:12:42.082Z,1.27
2018-08-23T20:15:11.147Z,1.20
2018-08-23T20:17:40.342Z,1.10
2018-08-23T20:20:09.455Z,1.20
2018-08-23T20:22:38.584Z,1.17
2018-08-23T20:25:09.407Z,1.20
2018-08-23T20:27:38.504Z,1.17
2018-08-23T20:30:07.600Z,1.27
2018-08-23T20:32:36.672Z,1.30
2018-08-23T20:35:05.950Z,1.10
2018-08-23T20:37:34.981Z,1.30
2018-08-23T20:40:04.768Z,1.57
2018-08-23T20:42:33.767Z,1.50
2018-08-23T20:45:02.901Z,1.40
2018-08-23T20:47:31.950Z,1.60
2018-08-23T20:50:01.094Z,1.67
2018-08-23T20:52:30.263Z,1.70
2018-08-23T20:54:59.464Z,1.63
2018-08-23T20:57:28.556Z,1.43
2018-08-23T20:59:57.674Z,1.60
2018-08-23T21:02:26.851Z,1.60
2018-08-23T21:04:55.985Z,1.40
2018-08-23T21:07:25.046Z,1.27
2018-08-23T21:09:54.211Z,1.40
2018-08-23T21:12:23.248Z,1.40
2018-08-23T21:14:52.328Z,1.50
2018-08-23T21:17:21.350Z,1.30
2018-08-23T21:19:50.448Z,1.27
2018-08-23T21:22:19.514Z,1.20
2018-08-23T21:24:48.594Z,1.53
2018-08-23T21:27:17.710Z,1.50
2018-08-23T21:29:46.840Z,1.47
2018-08-23T21:32:15.896Z,1.20
2018-08-23T21:34:44.980Z,1.80
2018-08-23T21:37:14.152Z,1.50
2018-08-23T21:39:43.284Z,1.50
2018-08-23T21:42:12.379Z,1.40
2018-08-23T21:44:41.364Z,2.00
2018-08-23T21:47:10.386Z,1.40
2018-08-23T21:49:39.689Z,1.87
2018-08-23T21:52:08.755Z,1.80
2018-08-23T21:54:37.841Z,1.63
2018-08-23T21:57:06.999Z,1.80
2018-08-23T21:59:36.133Z,1.90
2018-08-23T22:02:10.555Z,1.73
2018-08-23T22:04:44.954Z,2.10
2018-08-23T22:07:13.984Z,2.10
2018-08-23T22:09:44.831Z,2.07
2018-08-23T22:12:13.842Z,2.20
2018-08-23T22:14:42.892Z,2.10
2018-08-23T22:17:12.003Z,2.10
2018-08-23T22:19:41.167Z,2.53
2018-08-23T22:22:10.577Z,2.20
2018-08-23T22:24:39.579Z,2.00
2018-08-23T22:27:08.999Z,2.37
2018-08-23T22:29:38.300Z,2.40
2018-08-23T22:32:08.410Z,2.50
2018-08-23T22:34:37.556Z,2.10
2018-08-23T22:37:06.609Z,2.47
2018-08-23T22:39:35.797Z,2.10
2018-08-23T22:42:04.796Z,2.20
2018-08-23T22:44:33.897Z,2.20
2018-08-23T22:47:02.958Z,2.20
2018-08-23T22:49:32.075Z,2.33
2018-08-23T22:52:01.186Z,2.43
2018-08-23T22:54:30.359Z,2.23
2018-08-23T22:56:59.370Z,2.17
2018-08-23T22:59:28.504Z,2.20
2018-08-23T23:01:57.560Z,2.37
2018-08-23T23:04:26.758Z,2.00
2018-08-23T23:06:56.276Z,2.00
2018-08-23T23:09:25.469Z,2.10
2018-08-23T23:11:54.591Z,1.90
2018-08-23T23:14:23.654Z,2.37
2018-08-23T23:16:55.596Z,2.03
2018-08-23T23:19:25.617Z,2.13
2018-08-23T23:21:54.636Z,2.30
2018-08-23T23:24:28.948Z,2.30
2018-08-23T23:26:58.047Z,2.20
2018-08-23T23:29:27.128Z,2.07
2018-08-23T23:31:56.234Z,2.10
2018-08-23T23:34:25.390Z,2.03
2018-08-23T23:36:54.398Z,1.90
2018-08-23T23:39:23.445Z,2.20
2018-08-23T23:41:52.564Z,2.53
2018-08-23T23:44:21.605Z,2.30
2018-08-23T23:46:50.709Z,2.20
2018-08-23T23:49:19.822Z,2.20
2018-08-23T23:51:49.004Z,2.07
2018-08-23T23:54:18.201Z,2.33
2018-08-23T23:56:47.280Z,2.10
2018-08-23T23:59:16.493Z,2.50
